sensor_id;sensor_type;location;lat;lon;timestamp;P1;P2;P0
65556;PMS3003;52200;53.490;14.376;2024-03-25T00:00:10;18.50;10.75;6.00
65556;PMS3003;52200;53.490;14.376;2024-03-25T00:02:40;20.80;11.80;5.40
65556;PMS3003;52200;53.490;14.376;2024-03-25T00:05:07;25.00;15.00;9.00
65556;PMS3003;52200;53.490;14.376;2024-03-25T00:07:36;28.80;15.60;8.20
65556;PMS3003;52200;53.490;14.376;2024-03-25T00:10:04;41.20;27.40;14.80
65556;PMS3003;52200;53.490;14.376;2024-03-25T00:12:33;40.80;27.80;15.60
65556;PMS3003;52200;53.490;14.376;2024-03-25T00:15:02;48.00;29.20;17.20
65556;PMS3003;52200;53.490;14.376;2024-03-25T00:17:27;28.20;18.80;10.00
65556;PMS3003;52200;53.490;14.376;2024-03-25T00:19:53;31.00;17.25;10.00
65556;PMS3003;52200;53.490;14.376;2024-03-25T00:22:19;26.00;15.75;7.75
65556;PMS3003;52200;53.490;14.376;2024-03-25T00:24:48;28.60;17.80;10.00
65556;PMS3003;52200;53.490;14.376;2024-03-25T00:27:14;25.60;14.20;7.00
65556;PMS3003;52200;53.490;14.376;2024-03-25T00:29:40;25.60;15.60;8.40
65556;PMS3003;52200;53.490;14.376;2024-03-25T00:32:06;26.25;15.50;9.00
65556;PMS3003;52200;53.490;14.376;2024-03-25T00:34:32;27.00;15.00;7.75
65556;PMS3003;52200;53.490;14.376;2024-03-25T00:36:58;28.40;15.40;7.00
65556;PMS3003;52200;53.490;14.376;2024-03-25T00:39:24;22.00;12.40;7.60
65556;PMS3003;52200;53.490;14.376;2024-03-25T00:41:50;24.00;14.00;6.60
65556;PMS3003;52200;53.490;14.376;2024-03-25T00:44:16;22.60;11.00;5.40
65556;PMS3003;52200;53.490;14.376;2024-03-25T00:46:42;20.75;13.00;5.50
65556;PMS3003;52200;53.490;14.376;2024-03-25T00:49:08;26.50;11.00;6.00
65556;PMS3003;52200;53.490;14.376;2024-03-25T00:51:33;21.60;10.60;5.60
65556;PMS3003;52200;53.490;14.376;2024-03-25T00:53:59;26.25;12.75;6.25
65556;PMS3003;52200;53.490;14.376;2024-03-25T00:56:24;20.25;9.50;4.50
65556;PMS3003;52200;53.490;14.376;2024-03-25T00:58:51;20.00;12.60;7.00
65556;PMS3003;52200;53.490;14.376;2024-03-25T01:01:16;18.00;10.00;4.75
65556;PMS3003;52200;53.490;14.376;2024-03-25T01:03:42;17.00;7.00;3.00
65556;PMS3003;52200;53.490;14.376;2024-03-25T01:06:07;18.50;9.75;5.00
65556;PMS3003;52200;53.490;14.376;2024-03-25T01:08:33;17.75;7.50;5.00
65556;PMS3003;52200;53.490;14.376;2024-03-25T01:10:59;20.40;10.00;5.00
65556;PMS3003;52200;53.490;14.376;2024-03-25T01:13:25;21.00;11.00;6.00
65556;PMS3003;52200;53.490;14.376;2024-03-25T01:15:51;23.00;10.75;7.00
65556;PMS3003;52200;53.490;14.376;2024-03-25T01:18:17;18.00;10.60;5.40
65556;PMS3003;52200;53.490;14.376;2024-03-25T01:20:42;18.00;7.00;3.25
65556;PMS3003;52200;53.490;14.376;2024-03-25T01:23:09;19.60;12.80;5.00
65556;PMS3003;52200;53.490;14.376;2024-03-25T01:25:35;24.00;10.50;6.00
65556;PMS3003;52200;53.490;14.376;2024-03-25T01:28:00;17.50;9.75;5.00
65556;PMS3003;52200;53.490;14.376;2024-03-25T01:30:26;22.80;10.40;6.00
65556;PMS3003;52200;53.490;14.376;2024-03-25T01:32:53;15.20;8.20;5.60
65556;PMS3003;52200;53.490;14.376;2024-03-25T01:35:19;19.50;11.00;6.50
65556;PMS3003;52200;53.490;14.376;2024-03-25T01:37:45;28.60;18.00;9.00
65556;PMS3003;52200;53.490;14.376;2024-03-25T01:40:11;31.60;19.00;9.60
65556;PMS3003;52200;53.490;14.376;2024-03-25T01:42:37;29.00;17.25;9.75
65556;PMS3003;52200;53.490;14.376;2024-03-25T01:45:03;27.20;15.80;9.40
65556;PMS3003;52200;53.490;14.376;2024-03-25T01:47:30;27.80;17.80;10.20
65556;PMS3003;52200;53.490;14.376;2024-03-25T01:49:58;36.00;22.20;11.40
65556;PMS3003;52200;53.490;14.376;2024-03-25T01:52:25;38.00;22.40;12.60
65556;PMS3003;52200;53.490;14.376;2024-03-25T01:54:51;31.00;19.20;9.60
65556;PMS3003;52200;53.490;14.376;2024-03-25T01:57:18;39.60;25.60;13.20
65556;PMS3003;52200;53.490;14.376;2024-03-25T01:59:44;34.80;20.80;11.00
65556;PMS3003;52200;53.490;14.376;2024-03-25T02:02:10;32.80;20.00;10.60
65556;PMS3003;52200;53.490;14.376;2024-03-25T02:04:37;28.00;18.40;11.00
65556;PMS3003;52200;53.490;14.376;2024-03-25T02:07:05;34.60;17.80;9.00
65556;PMS3003;52200;53.490;14.376;2024-03-25T02:09:32;29.20;18.00;10.00
65556;PMS3003;52200;53.490;14.376;2024-03-25T02:11:59;23.00;12.20;5.80
65556;PMS3003;52200;53.490;14.376;2024-03-25T02:14:26;19.80;10.00;5.00
65556;PMS3003;52200;53.490;14.376;2024-03-25T02:16:52;23.20;12.40;5.00
65556;PMS3003;52200;53.490;14.376;2024-03-25T02:19:18;19.75;9.00;4.50
65556;PMS3003;52200;53.490;14.376;2024-03-25T02:21:43;19.00;9.50;3.75
65556;PMS3003;52200;53.490;14.376;2024-03-25T02:24:09;16.75;9.00;5.00
65556;PMS3003;52200;53.490;14.376;2024-03-25T02:26:37;19.40;10.00;4.80
65556;PMS3003;52200;53.490;14.376;2024-03-25T02:29:02;21.00;9.25;3.75
65556;PMS3003;52200;53.490;14.376;2024-03-25T02:31:28;21.50;14.00;6.00
65556;PMS3003;52200;53.490;14.376;2024-03-25T02:33:53;20.50;11.50;6.50
65556;PMS3003;52200;53.490;14.376;2024-03-25T02:36:19;22.00;11.00;5.50
65556;PMS3003;52200;53.490;14.376;2024-03-25T02:38:44;21.00;13.00;6.25
65556;PMS3003;52200;53.490;14.376;2024-03-25T02:41:10;22.00;14.25;6.75
65556;PMS3003;52200;53.490;14.376;2024-03-25T02:43:35;18.00;9.25;4.75
65556;PMS3003;52200;53.490;14.376;2024-03-25T02:46:01;16.75;6.75;5.00
65556;PMS3003;52200;53.490;14.376;2024-03-25T02:48:26;18.00;10.50;3.00
65556;PMS3003;52200;53.490;14.376;2024-03-25T02:50:51;20.50;7.00;5.00
65556;PMS3003;52200;53.490;14.376;2024-03-25T02:53:17;22.25;9.00;3.00
65556;PMS3003;52200;53.490;14.376;2024-03-25T02:55:42;15.50;7.25;4.75
65556;PMS3003;52200;53.490;14.376;2024-03-25T02:58:08;16.50;7.00;3.00
65556;PMS3003;52200;53.490;14.376;2024-03-25T03:00:34;17.25;7.75;5.00
65556;PMS3003;52200;53.490;14.376;2024-03-25T03:02:59;18.50;10.25;5.00
65556;PMS3003;52200;53.490;14.376;2024-03-25T03:05:24;19.25;9.75;5.00
65556;PMS3003;52200;53.490;14.376;2024-03-25T03:07:50;17.75;7.50;3.00
65556;PMS3003;52200;53.490;14.376;2024-03-25T03:10:15;18.25;10.25;5.00
65556;PMS3003;52200;53.490;14.376;2024-03-25T03:12:41;20.75;9.50;3.00
65556;PMS3003;52200;53.490;14.376;2024-03-25T03:15:06;18.00;8.50;3.00
65556;PMS3003;52200;53.490;14.376;2024-03-25T03:17:32;17.40;8.40;3.20
65556;PMS3003;52200;53.490;14.376;2024-03-25T03:19:58;16.75;7.00;3.00
65556;PMS3003;52200;53.490;14.376;2024-03-25T03:22:23;18.00;9.00;5.00
65556;PMS3003;52200;53.490;14.376;2024-03-25T03:24:49;19.25;9.50;5.75
65556;PMS3003;52200;53.490;14.376;2024-03-25T03:27:14;21.00;8.75;3.25
65556;PMS3003;52200;53.490;14.376;2024-03-25T03:29:40;21.75;10.75;5.50
65556;PMS3003;52200;53.490;14.376;2024-03-25T03:32:05;17.75;9.00;5.00
65556;PMS3003;52200;53.490;14.376;2024-03-25T03:34:31;17.75;8.00;3.00
65556;PMS3003;52200;53.490;14.376;2024-03-25T03:36:56;20.25;9.50;5.00
65556;PMS3003;52200;53.490;14.376;2024-03-25T03:39:22;21.50;9.25;5.00
65556;PMS3003;52200;53.490;14.376;2024-03-25T03:41:47;21.25;10.00;5.00
65556;PMS3003;52200;53.490;14.376;2024-03-25T03:44:13;19.25;11.25;5.00
65556;PMS3003;52200;53.490;14.376;2024-03-25T03:46:40;15.00;7.60;3.20
65556;PMS3003;52200;53.490;14.376;2024-03-25T03:49:05;18.50;9.50;5.00
65556;PMS3003;52200;53.490;14.376;2024-03-25T03:51:31;23.25;9.75;6.00
65556;PMS3003;52200;53.490;14.376;2024-03-25T03:53:56;18.75;10.00;5.00
65556;PMS3003;52200;53.490;14.376;2024-03-25T03:56:22;21.00;9.25;5.00
65556;PMS3003;52200;53.490;14.376;2024-03-25T03:58:47;15.50;9.00;5.00
65556;PMS3003;52200;53.490;14.376;2024-03-25T04:01:17;18.50;10.00;3.00
65556;PMS3003;52200;53.490;14.376;2024-03-25T04:03:43;20.40;10.00;5.60
65556;PMS3003;52200;53.490;14.376;2024-03-25T04:06:12;19.20;7.00;5.20
65556;PMS3003;52200;53.490;14.376;2024-03-25T04:08:39;19.40;9.60;5.60
65556;PMS3003;52200;53.490;14.376;2024-03-25T04:11:07;18.00;9.00;5.20
65556;PMS3003;52200;53.490;14.376;2024-03-25T04:13:33;17.40;7.00;4.60
65556;PMS3003;52200;53.490;14.376;2024-03-25T04:16:03;15.20;7.20;3.80
65556;PMS3003;52200;53.490;14.376;2024-03-25T04:18:30;17.60;9.40;5.80
65556;PMS3003;52200;53.490;14.376;2024-03-25T04:20:56;20.40;9.00;3.00
65556;PMS3003;52200;53.490;14.376;2024-03-25T04:23:22;15.50;7.00;4.25
65556;PMS3003;52200;53.490;14.376;2024-03-25T04:25:48;17.00;9.75;2.75
65556;PMS3003;52200;53.490;14.376;2024-03-25T04:28:14;16.20;7.80;5.00
65556;PMS3003;52200;53.490;14.376;2024-03-25T04:30:39;19.50;10.00;3.00
65556;PMS3003;52200;53.490;14.376;2024-03-25T04:33:04;18.00;8.00;5.00
65556;PMS3003;52200;53.490;14.376;2024-03-25T04:35:30;20.50;9.00;5.00
65556;PMS3003;52200;53.490;14.376;2024-03-25T04:37:55;19.00;12.00;5.00
65556;PMS3003;52200;53.490;14.376;2024-03-25T04:40:21;17.25;9.00;3.00
65556;PMS3003;52200;53.490;14.376;2024-03-25T04:42:47;19.60;9.60;3.00
65556;PMS3003;52200;53.490;14.376;2024-03-25T04:45:13;16.20;7.80;3.00
65556;PMS3003;52200;53.490;14.376;2024-03-25T04:47:39;20.00;10.00;3.75
65556;PMS3003;52200;53.490;14.376;2024-03-25T04:50:05;18.50;10.25;5.25
65556;PMS3003;52200;53.490;14.376;2024-03-25T04:52:32;20.00;11.60;5.00
65556;PMS3003;52200;53.490;14.376;2024-03-25T04:54:57;18.75;7.00;4.75
65556;PMS3003;52200;53.490;14.376;2024-03-25T04:57:23;18.80;9.20;6.00
65556;PMS3003;52200;53.490;14.376;2024-03-25T04:59:49;21.00;12.75;7.00
65556;PMS3003;52200;53.490;14.376;2024-03-25T05:02:14;26.75;12.75;5.75
65556;PMS3003;52200;53.490;14.376;2024-03-25T05:04:40;20.75;10.25;5.75
65556;PMS3003;52200;53.490;14.376;2024-03-25T05:07:05;17.00;9.00;5.00
65556;PMS3003;52200;53.490;14.376;2024-03-25T05:09:31;27.75;14.00;5.75
65556;PMS3003;52200;53.490;14.376;2024-03-25T05:11:56;21.75;10.75;5.00
65556;PMS3003;52200;53.490;14.376;2024-03-25T05:14:22;22.50;12.00;4.00
65556;PMS3003;52200;53.490;14.376;2024-03-25T05:16:47;19.50;7.25;3.00
65556;PMS3003;52200;53.490;14.376;2024-03-25T05:19:14;16.60;9.40;4.20
65556;PMS3003;52200;53.490;14.376;2024-03-25T05:21:39;17.50;8.50;3.00
65556;PMS3003;52200;53.490;14.376;2024-03-25T05:24:05;17.60;9.40;5.00
65556;PMS3003;52200;53.490;14.376;2024-03-25T05:26:31;13.75;5.75;3.00
65556;PMS3003;52200;53.490;14.376;2024-03-25T05:28:57;23.00;11.00;5.00
65556;PMS3003;52200;53.490;14.376;2024-03-25T05:31:23;17.40;8.20;5.00
65556;PMS3003;52200;53.490;14.376;2024-03-25T05:33:49;20.40;10.40;6.00
65556;PMS3003;52200;53.490;14.376;2024-03-25T05:36:15;19.40;10.40;5.20
65556;PMS3003;52200;53.490;14.376;2024-03-25T05:38:41;19.60;10.80;5.80
65556;PMS3003;52200;53.490;14.376;2024-03-25T05:41:10;22.60;9.20;5.00
65556;PMS3003;52200;53.490;14.376;2024-03-25T05:43:35;16.60;9.80;6.00
65556;PMS3003;52200;53.490;14.376;2024-03-25T05:46:01;17.60;8.40;5.00
65556;PMS3003;52200;53.490;14.376;2024-03-25T05:48:27;18.50;9.25;5.50
65556;PMS3003;52200;53.490;14.376;2024-03-25T05:53:25;17.80;10.00;5.00
65556;PMS3003;52200;53.490;14.376;2024-03-25T05:55:51;18.80;8.80;5.40
65556;PMS3003;52200;53.490;14.376;2024-03-25T05:58:17;21.50;10.50;5.00
65556;PMS3003;52200;53.490;14.376;2024-03-25T06:00:42;19.75;12.00;6.00
65556;PMS3003;52200;53.490;14.376;2024-03-25T06:03:08;19.00;7.00;4.50
65556;PMS3003;52200;53.490;14.376;2024-03-25T06:05:33;19.00;9.00;5.75
65556;PMS3003;52200;53.490;14.376;2024-03-25T06:07:59;17.75;8.75;5.00
65556;PMS3003;52200;53.490;14.376;2024-03-25T06:10:24;16.50;8.25;4.50
65556;PMS3003;52200;53.490;14.376;2024-03-25T06:12:50;20.25;10.00;3.00
65556;PMS3003;52200;53.490;14.376;2024-03-25T06:15:15;16.00;9.50;5.00
65556;PMS3003;52200;53.490;14.376;2024-03-25T06:17:40;18.50;7.00;4.00
65556;PMS3003;52200;53.490;14.376;2024-03-25T06:20:06;16.25;7.75;5.00
65556;PMS3003;52200;53.490;14.376;2024-03-25T06:22:33;19.60;9.80;4.60
65556;PMS3003;52200;53.490;14.376;2024-03-25T06:24:58;17.25;9.50;5.00
65556;PMS3003;52200;53.490;14.376;2024-03-25T06:27:23;20.25;8.75;5.00
65556;PMS3003;52200;53.490;14.376;2024-03-25T06:29:49;19.25;10.00;5.75
65556;PMS3003;52200;53.490;14.376;2024-03-25T06:32:34;18.40;9.00;5.40
65556;PMS3003;52200;53.490;14.376;2024-03-25T06:35:18;25.20;11.00;6.00
65556;PMS3003;52200;53.490;14.376;2024-03-25T06:37:44;22.00;11.00;5.50
65556;PMS3003;52200;53.490;14.376;2024-03-25T06:40:09;20.25;10.50;6.00
65556;PMS3003;52200;53.490;14.376;2024-03-25T06:42:35;19.20;11.40;6.20
65556;PMS3003;52200;53.490;14.376;2024-03-25T06:45:01;23.00;14.50;6.75
65556;PMS3003;52200;53.490;14.376;2024-03-25T06:47:26;24.75;15.25;8.00
65556;PMS3003;52200;53.490;14.376;2024-03-25T06:49:52;27.25;13.00;8.00
65556;PMS3003;52200;53.490;14.376;2024-03-25T06:52:17;25.25;14.00;8.00
65556;PMS3003;52200;53.490;14.376;2024-03-25T06:54:43;25.00;14.75;8.25
65556;PMS3003;52200;53.490;14.376;2024-03-25T06:57:08;28.00;13.00;7.75
65556;PMS3003;52200;53.490;14.376;2024-03-25T06:59:33;19.00;11.00;7.00
65556;PMS3003;52200;53.490;14.376;2024-03-25T07:02:01;18.00;11.00;6.60
65556;PMS3003;52200;53.490;14.376;2024-03-25T07:04:26;20.00;11.00;6.00
65556;PMS3003;52200;53.490;14.376;2024-03-25T07:06:52;24.75;12.50;6.75
65556;PMS3003;52200;53.490;14.376;2024-03-25T07:09:17;24.50;13.75;7.00
65556;PMS3003;52200;53.490;14.376;2024-03-25T07:11:43;26.25;12.25;7.00
65556;PMS3003;52200;53.490;14.376;2024-03-25T07:14:11;20.80;11.20;7.20
65556;PMS3003;52200;53.490;14.376;2024-03-25T07:16:37;22.75;14.00;9.50
65556;PMS3003;52200;53.490;14.376;2024-03-25T07:19:03;27.00;19.25;13.00
65556;PMS3003;52200;53.490;14.376;2024-03-25T07:21:28;28.50;17.50;12.00
65556;PMS3003;52200;53.490;14.376;2024-03-25T07:23:54;25.25;17.25;12.25
65556;PMS3003;52200;53.490;14.376;2024-03-25T07:26:19;27.50;19.75;12.25
65556;PMS3003;52200;53.490;14.376;2024-03-25T07:28:44;25.50;15.50;11.00
65556;PMS3003;52200;53.490;14.376;2024-03-25T07:31:10;22.25;13.50;7.75
65556;PMS3003;52200;53.490;14.376;2024-03-25T07:33:35;24.00;15.50;9.00
65556;PMS3003;52200;53.490;14.376;2024-03-25T07:36:01;25.75;16.25;8.75
65556;PMS3003;52200;53.490;14.376;2024-03-25T07:38:26;24.25;18.25;9.75
65556;PMS3003;52200;53.490;14.376;2024-03-25T07:40:52;26.00;16.75;8.50
65556;PMS3003;52200;53.490;14.376;2024-03-25T07:43:17;22.25;12.50;7.00
65556;PMS3003;52200;53.490;14.376;2024-03-25T07:45:43;19.50;13.00;8.00
65556;PMS3003;52200;53.490;14.376;2024-03-25T07:48:08;18.25;12.00;6.00
65556;PMS3003;52200;53.490;14.376;2024-03-25T07:50:34;20.50;10.50;5.00
65556;PMS3003;52200;53.490;14.376;2024-03-25T07:52:59;22.50;10.00;6.00
65556;PMS3003;52200;53.490;14.376;2024-03-25T07:55:25;15.75;9.00;5.50
65556;PMS3003;52200;53.490;14.376;2024-03-25T07:57:50;24.50;14.00;7.00
65556;PMS3003;52200;53.490;14.376;2024-03-25T08:00:16;23.50;12.25;6.00
65556;PMS3003;52200;53.490;14.376;2024-03-25T08:02:42;18.50;9.50;4.00
65556;PMS3003;52200;53.490;14.376;2024-03-25T08:05:07;20.00;10.50;4.00
65556;PMS3003;52200;53.490;14.376;2024-03-25T08:07:33;16.80;9.00;4.80
65556;PMS3003;52200;53.490;14.376;2024-03-25T08:09:59;14.25;8.00;4.00
65556;PMS3003;52200;53.490;14.376;2024-03-25T08:12:24;19.25;9.25;5.00
65556;PMS3003;52200;53.490;14.376;2024-03-25T08:14:50;19.00;11.50;6.50
65556;PMS3003;52200;53.490;14.376;2024-03-25T08:17:15;19.00;10.25;6.00
65556;PMS3003;52200;53.490;14.376;2024-03-25T08:19:41;18.50;10.50;6.00
65556;PMS3003;52200;53.490;14.376;2024-03-25T08:22:06;19.50;10.75;4.25
65556;PMS3003;52200;53.490;14.376;2024-03-25T08:24:32;20.50;9.25;5.75
65556;PMS3003;52200;53.490;14.376;2024-03-25T08:26:57;18.25;9.75;4.00
65556;PMS3003;52200;53.490;14.376;2024-03-25T08:29:22;17.25;10.50;6.00
65556;PMS3003;52200;53.490;14.376;2024-03-25T08:31:48;20.00;9.75;5.75
65556;PMS3003;52200;53.490;14.376;2024-03-25T08:34:13;18.00;11.00;3.00
65556;PMS3003;52200;53.490;14.376;2024-03-25T08:36:39;23.50;13.25;7.00
65556;PMS3003;52200;53.490;14.376;2024-03-25T08:39:05;23.00;11.00;6.00
65556;PMS3003;52200;53.490;14.376;2024-03-25T08:41:30;21.25;13.50;6.75
65556;PMS3003;52200;53.490;14.376;2024-03-25T08:43:55;20.25;13.00;5.00
65556;PMS3003;52200;53.490;14.376;2024-03-25T08:46:21;21.75;8.75;5.50
65556;PMS3003;52200;53.490;14.376;2024-03-25T08:48:46;25.00;13.00;7.00
65556;PMS3003;52200;53.490;14.376;2024-03-25T08:51:12;26.00;14.75;8.00
65556;PMS3003;52200;53.490;14.376;2024-03-25T08:53:37;21.50;12.50;7.00
65556;PMS3003;52200;53.490;14.376;2024-03-25T08:56:03;27.75;14.25;8.25
65556;PMS3003;52200;53.490;14.376;2024-03-25T08:58:28;25.60;13.00;6.80
65556;PMS3003;52200;53.490;14.376;2024-03-25T09:00:54;19.50;11.00;6.25
65556;PMS3003;52200;53.490;14.376;2024-03-25T09:03:19;23.25;13.75;7.25
65556;PMS3003;52200;53.490;14.376;2024-03-25T09:05:45;26.25;14.00;7.75
65556;PMS3003;52200;53.490;14.376;2024-03-25T09:08:12;22.40;13.20;7.20
65556;PMS3003;52200;53.490;14.376;2024-03-25T09:10:38;21.20;11.60;6.40
65556;PMS3003;52200;53.490;14.376;2024-03-25T09:13:22;22.20;12.80;6.80
65556;PMS3003;52200;53.490;14.376;2024-03-25T09:15:48;21.00;11.80;6.00
65556;PMS3003;52200;53.490;14.376;2024-03-25T09:18:14;19.00;9.20;6.00
65556;PMS3003;52200;53.490;14.376;2024-03-25T09:20:39;17.75;8.50;4.00
65556;PMS3003;52200;53.490;14.376;2024-03-25T09:23:05;23.25;12.00;6.00
65556;PMS3003;52200;53.490;14.376;2024-03-25T09:25:30;20.75;11.75;6.25
65556;PMS3003;52200;53.490;14.376;2024-03-25T09:27:56;19.00;10.00;6.00
65556;PMS3003;52200;53.490;14.376;2024-03-25T09:30:21;20.00;10.00;5.00
65556;PMS3003;52200;53.490;14.376;2024-03-25T09:32:47;20.25;11.00;5.00
65556;PMS3003;52200;53.490;14.376;2024-03-25T09:35:12;21.75;13.00;5.00
65556;PMS3003;52200;53.490;14.376;2024-03-25T09:37:38;21.75;10.75;4.75
65556;PMS3003;52200;53.490;14.376;2024-03-25T09:40:04;20.00;11.00;6.75
65556;PMS3003;52200;53.490;14.376;2024-03-25T09:42:46;20.00;11.60;6.60
65556;PMS3003;52200;53.490;14.376;2024-03-25T09:45:15;16.20;9.80;5.80
65556;PMS3003;52200;53.490;14.376;2024-03-25T09:47:45;18.60;10.00;5.00
65556;PMS3003;52200;53.490;14.376;2024-03-25T09:50:12;18.60;10.20;4.40
65556;PMS3003;52200;53.490;14.376;2024-03-25T09:52:39;19.20;9.40;5.00
65556;PMS3003;52200;53.490;14.376;2024-03-25T09:55:05;17.00;8.20;4.00
65556;PMS3003;52200;53.490;14.376;2024-03-25T09:57:31;19.00;9.00;3.00
65556;PMS3003;52200;53.490;14.376;2024-03-25T09:59:57;16.20;9.80;4.80
65556;PMS3003;52200;53.490;14.376;2024-03-25T10:02:23;18.50;9.50;4.00
65556;PMS3003;52200;53.490;14.376;2024-03-25T10:04:51;15.80;8.60;4.80
65556;PMS3003;52200;53.490;14.376;2024-03-25T10:07:23;15.50;6.00;4.00
65556;PMS3003;52200;53.490;14.376;2024-03-25T10:09:50;14.40;6.40;3.00
65556;PMS3003;52200;53.490;14.376;2024-03-25T10:12:15;14.00;6.50;3.00
65556;PMS3003;52200;53.490;14.376;2024-03-25T10:14:41;14.75;7.00;4.00
65556;PMS3003;52200;53.490;14.376;2024-03-25T10:17:07;17.25;9.25;4.00
65556;PMS3003;52200;53.490;14.376;2024-03-25T10:19:33;17.00;7.00;3.75
65556;PMS3003;52200;53.490;14.376;2024-03-25T10:22:03;13.20;5.00;3.00
65556;PMS3003;52200;53.490;14.376;2024-03-25T10:24:38;12.80;6.00;3.20
65556;PMS3003;52200;53.490;14.376;2024-03-25T10:27:04;10.60;3.40;1.60
65556;PMS3003;52200;53.490;14.376;2024-03-25T10:29:31;12.40;5.00;3.00
65556;PMS3003;52200;53.490;14.376;2024-03-25T10:32:00;17.40;8.40;4.00
65556;PMS3003;52200;53.490;14.376;2024-03-25T10:34:26;21.00;11.80;5.00
65556;PMS3003;52200;53.490;14.376;2024-03-25T10:36:52;16.50;7.00;3.00
65556;PMS3003;52200;53.490;14.376;2024-03-25T10:39:24;13.00;5.40;2.00
65556;PMS3003;52200;53.490;14.376;2024-03-25T10:41:51;10.20;2.80;1.00
65556;PMS3003;52200;53.490;14.376;2024-03-25T10:44:22;16.00;5.80;2.00
65556;PMS3003;52200;53.490;14.376;2024-03-25T10:46:50;13.00;4.00;2.80
65556;PMS3003;52200;53.490;14.376;2024-03-25T10:49:25;15.00;6.60;2.80
65556;PMS3003;52200;53.490;14.376;2024-03-25T10:51:59;15.20;6.40;3.00
65556;PMS3003;52200;53.490;14.376;2024-03-25T10:54:26;13.00;4.80;2.00
65556;PMS3003;52200;53.490;14.376;2024-03-25T10:56:54;10.60;3.00;1.00
65556;PMS3003;52200;53.490;14.376;2024-03-25T10:59:21;12.60;4.00;1.00
65556;PMS3003;52200;53.490;14.376;2024-03-25T11:01:49;13.20;2.40;2.00
65556;PMS3003;52200;53.490;14.376;2024-03-25T11:04:14;16.00;7.50;3.00
65556;PMS3003;52200;53.490;14.376;2024-03-25T11:06:41;25.80;16.80;7.80
65556;PMS3003;52200;53.490;14.376;2024-03-25T11:09:06;11.25;3.00;1.00
65556;PMS3003;52200;53.490;14.376;2024-03-25T11:11:32;9.75;3.00;1.00
65556;PMS3003;52200;53.490;14.376;2024-03-25T11:13:59;11.00;3.00;1.00
65556;PMS3003;52200;53.490;14.376;2024-03-25T11:16:31;12.40;5.80;3.00
65556;PMS3003;52200;53.490;14.376;2024-03-25T11:19:00;11.60;4.00;1.40
65556;PMS3003;52200;53.490;14.376;2024-03-25T11:21:29;12.80;3.00;1.00
65556;PMS3003;52200;53.490;14.376;2024-03-25T11:23:54;14.25;4.00;1.00
65556;PMS3003;52200;53.490;14.376;2024-03-25T11:26:29;10.75;4.25;1.00
65556;PMS3003;52200;53.490;14.376;2024-03-25T11:29:00;14.60;5.60;2.60
65556;PMS3003;52200;53.490;14.376;2024-03-25T11:31:26;16.00;6.75;3.00
65556;PMS3003;52200;53.490;14.376;2024-03-25T11:33:52;11.20;4.60;2.00
65556;PMS3003;52200;53.490;14.376;2024-03-25T11:36:18;14.20;7.60;4.00
65556;PMS3003;52200;53.490;14.376;2024-03-25T11:38:45;14.80;8.00;3.00
65556;PMS3003;52200;53.490;14.376;2024-03-25T11:41:11;21.75;14.00;8.50
65556;PMS3003;52200;53.490;14.376;2024-03-25T11:43:37;14.20;7.00;3.60
65556;PMS3003;52200;53.490;14.376;2024-03-25T11:46:03;14.00;7.00;3.00
65556;PMS3003;52200;53.490;14.376;2024-03-25T11:48:29;17.60;9.00;6.00
65556;PMS3003;52200;53.490;14.376;2024-03-25T11:50:55;18.00;10.00;4.40
65556;PMS3003;52200;53.490;14.376;2024-03-25T11:53:20;15.50;4.50;2.25
65556;PMS3003;52200;53.490;14.376;2024-03-25T11:55:46;12.25;5.25;2.00
65556;PMS3003;52200;53.490;14.376;2024-03-25T11:58:16;14.20;5.00;2.40
65556;PMS3003;52200;53.490;14.376;2024-03-25T12:00:45;17.25;7.25;3.50
65556;PMS3003;52200;53.490;14.376;2024-03-25T12:03:14;10.40;3.60;1.80
65556;PMS3003;52200;53.490;14.376;2024-03-25T12:05:44;11.40;4.00;3.00
65556;PMS3003;52200;53.490;14.376;2024-03-25T12:08:09;13.00;5.25;2.75
65556;PMS3003;52200;53.490;14.376;2024-03-25T12:10:37;13.80;4.20;2.20
65556;PMS3003;52200;53.490;14.376;2024-03-25T12:13:21;10.00;3.20;1.00
65556;PMS3003;52200;53.490;14.376;2024-03-25T12:15:47;12.75;3.50;1.00
65556;PMS3003;52200;53.490;14.376;2024-03-25T12:18:13;10.80;4.00;2.00
65556;PMS3003;52200;53.490;14.376;2024-03-25T12:20:39;11.40;3.60;2.20
65556;PMS3003;52200;53.490;14.376;2024-03-25T12:23:05;10.75;3.00;1.00
65556;PMS3003;52200;53.490;14.376;2024-03-25T12:25:31;14.40;4.00;2.00
65556;PMS3003;52200;53.490;14.376;2024-03-25T12:27:57;10.50;1.75;1.00
65556;PMS3003;52200;53.490;14.376;2024-03-25T12:30:22;9.00;2.00;1.00
65556;PMS3003;52200;53.490;14.376;2024-03-25T12:32:48;11.00;3.25;1.00
65556;PMS3003;52200;53.490;14.376;2024-03-25T12:35:17;11.25;2.75;2.00
65556;PMS3003;52200;53.490;14.376;2024-03-25T12:37:44;11.20;3.00;1.80
65556;PMS3003;52200;53.490;14.376;2024-03-25T12:40:13;16.40;7.20;3.20
65556;PMS3003;52200;53.490;14.376;2024-03-25T12:42:53;12.00;5.20;3.00
65556;PMS3003;52200;53.490;14.376;2024-03-25T12:45:20;18.20;7.40;3.00
65556;PMS3003;52200;53.490;14.376;2024-03-25T12:47:47;15.40;8.00;3.00
65556;PMS3003;52200;53.490;14.376;2024-03-25T12:50:12;13.50;6.00;3.00
65556;PMS3003;52200;53.490;14.376;2024-03-25T12:52:37;14.50;6.50;2.00
65556;PMS3003;52200;53.490;14.376;2024-03-25T12:55:03;14.00;7.25;3.00
65556;PMS3003;52200;53.490;14.376;2024-03-25T12:57:29;19.40;7.80;3.20
65556;PMS3003;52200;53.490;14.376;2024-03-25T12:59:55;21.00;8.00;3.80
65556;PMS3003;52200;53.490;14.376;2024-03-25T13:02:20;12.25;5.00;3.00
65556;PMS3003;52200;53.490;14.376;2024-03-25T13:04:46;13.00;6.25;3.00
65556;PMS3003;52200;53.490;14.376;2024-03-25T13:07:11;15.25;7.50;3.00
65556;PMS3003;52200;53.490;14.376;2024-03-25T13:09:37;13.50;4.25;2.00
65556;PMS3003;52200;53.490;14.376;2024-03-25T13:12:03;17.50;8.00;2.75
65556;PMS3003;52200;53.490;14.376;2024-03-25T13:14:29;16.20;5.20;2.00
65556;PMS3003;52200;53.490;14.376;2024-03-25T13:16:55;12.60;4.60;2.00
65556;PMS3003;52200;53.490;14.376;2024-03-25T13:19:21;10.40;3.00;1.40
65556;PMS3003;52200;53.490;14.376;2024-03-25T13:21:46;11.50;2.00;0.75
65556;PMS3003;52200;53.490;14.376;2024-03-25T13:24:14;10.00;4.00;1.40
65556;PMS3003;52200;53.490;14.376;2024-03-25T13:26:39;10.20;3.00;1.00
65556;PMS3003;52200;53.490;14.376;2024-03-25T13:29:05;8.75;2.25;1.00
65556;PMS3003;52200;53.490;14.376;2024-03-25T13:31:32;7.80;1.40;0.20
65556;PMS3003;52200;53.490;14.376;2024-03-25T13:33:58;8.00;2.00;1.00
65556;PMS3003;52200;53.490;14.376;2024-03-25T13:36:24;9.50;2.00;1.00
65556;PMS3003;52200;53.490;14.376;2024-03-25T13:38:49;11.25;3.00;1.00
65556;PMS3003;52200;53.490;14.376;2024-03-25T13:41:15;9.00;2.50;1.00
65556;PMS3003;52200;53.490;14.376;2024-03-25T13:43:43;11.60;3.00;1.00
65556;PMS3003;52200;53.490;14.376;2024-03-25T13:46:09;13.00;4.40;2.00
65556;PMS3003;52200;53.490;14.376;2024-03-25T13:48:37;9.20;2.60;1.00